Svitzer Stanlow — MLNF7 — position and weather

sailwx.info

Track history (hours):
 
Tides and Currents Weather Stations Pressure Air Temp Water Temp Dewpoint Dewpoint Depression Visibility Wind Speed Wind Dir Waves Ship Positions

Svitzer Stanlow

Last reported at 2016-Aug-30 10:29 UTC. Time now 2016-Aug-30 10:55 UTC.
Position N 53°23' W 002°60'.

Length 39 m.

Type: Tug. MMSI: 235010620.

Date/timePositionNaut miles runAvg speedWind from/ knotsBaromVisibWave heightAir tempDewpointWater temp
2016-Aug-30 10:29N 53°23' W 002°60'0 0.0
2016-Aug-30 09:32N 53°23' W 002°60'0 0.0
2016-Aug-30 08:32N 53°23' W 002°60'0 0.0
2016-Aug-30 07:32N 53°23' W 002°60'0 0.0
2016-Aug-30 06:32N 53°23' W 002°60'0 0.0
2016-Aug-30 05:32N 53°23' W 002°60'0 0.0
2016-Aug-30 04:29N 53°23' W 002°60'0 0.0
2016-Aug-30 03:32N 53°23' W 002°60'0 0.0
2016-Aug-30 02:32N 53°23' W 002°60'0 0.0
2016-Aug-30 01:32N 53°23' W 002°60'0 0.0
2016-Aug-30 00:29N 53°23' W 002°60'0 0.0
2016-Aug-29 23:32N 53°23' W 002°60'0 0.0
2016-Aug-29 22:32N 53°23' W 002°60'0 0.1
2016-Aug-29 21:29N 53°23' W 002°60'2 2.6
2016-Aug-29 20:33N 53°25' W 003°01'8 8.0
2016-Aug-29 19:33N 53°32' W 003°08'3 3.1
2016-Aug-29 18:33N 53°31' W 003°13'8 8.0
2016-Aug-29 17:33N 53°27' W 003°02'5 4.7
2016-Aug-29 16:33N 53°23' W 002°60'0 0.0
2016-Aug-29 15:33N 53°23' W 002°60'0 0.0
2016-Aug-29 14:33N 53°23' W 002°60'0 0.0
2016-Aug-29 13:33N 53°23' W 002°60'0 0.0
2016-Aug-29 12:33N 53°23' W 002°60'0 0.0
2016-Aug-29 11:33N 53°23' W 002°60'0 0.0
2016-Aug-29 10:33N 53°23' W 002°60'0 0.0
2016-Aug-29 09:33N 53°23' W 002°60'1 1.1
2016-Aug-29 08:33N 53°24' W 003°00'8 8.0
2016-Aug-29 07:33N 53°31' W 003°07'3 3.2
2016-Aug-29 06:33N 53°31' W 003°12'8 8.4
2016-Aug-29 05:33N 53°26' W 003°01'3 3.1
2016-Aug-29 04:32N 53°23' W 003°00'0 0.0
2016-Aug-29 03:32N 53°23' W 003°00'0 0.0
2016-Aug-29 02:29N 53°23' W 003°00'0 0.0
2016-Aug-29 01:29N 53°23' W 003°00'0 0.0
2016-Aug-29 00:32N 53°23' W 003°00'0 0.0
2016-Aug-28 23:32N 53°23' W 003°00'0 0.0
2016-Aug-28 22:32N 53°23' W 003°00'0 0.0
2016-Aug-28 21:32N 53°23' W 003°00'0 0.0
2016-Aug-28 20:32N 53°23' W 003°00'0 0.0
2016-Aug-28 19:32N 53°23' W 003°00'0 0.0
2016-Aug-28 18:32N 53°23' W 003°00'0 0.0
2016-Aug-28 17:32N 53°23' W 003°00'0 0.0
2016-Aug-28 16:32N 53°23' W 003°00'0 0.0
2016-Aug-28 15:32N 53°23' W 003°00'0 0.0
2016-Aug-28 14:32N 53°23' W 003°00'0 0.0
2016-Aug-28 13:32N 53°23' W 003°00'0 0.0
2016-Aug-28 12:32N 53°23' W 003°00'0 0.0
2016-Aug-28 11:32N 53°23' W 003°00'0 0.0
2016-Aug-28 10:32N 53°23' W 003°00'0 0.0
2016-Aug-28 09:32N 53°23' W 003°00'0 0.0
2016-Aug-28 08:32N 53°23' W 003°00'0 0.1
2016-Aug-28 07:33N 53°23' W 002°60'6 6.2
2016-Aug-28 06:33N 53°29' W 003°04'8 7.7
2016-Aug-28 05:33N 53°31' W 003°17'7 6.5
2016-Aug-28 04:33N 53°30' W 003°06'8 8.1
2016-Aug-28 03:34N 53°23' W 002°60'0 0.1
2016-Aug-28 02:33N 53°23' W 003°00'0 0.0
2016-Aug-28 01:33N 53°23' W 003°00'0 0.0
2016-Aug-28 00:30N 53°23' W 003°00'0 0.0
2016-Aug-27 23:33N 53°23' W 003°00'0 0.0
2016-Aug-27 22:33N 53°23' W 003°00'0 0.0
2016-Aug-27 21:33N 53°23' W 003°00'0 0.0
2016-Aug-27 20:33N 53°23' W 003°00'0 0.0
2016-Aug-27 19:33N 53°23' W 003°00'0 0.0
2016-Aug-27 18:30N 53°23' W 003°00'0 0.0
2016-Aug-27 17:33N 53°23' W 003°00'0 0.0
2016-Aug-27 16:30N 53°23' W 003°00'0 0.0
2016-Aug-27 15:33N 53°23' W 003°00'0 0.0
2016-Aug-27 14:32N 53°23' W 003°00'0 0.0
2016-Aug-27 13:32N 53°23' W 003°00'0 0.0
2016-Aug-27 12:32N 53°23' W 003°00'0 0.0
2016-Aug-27 11:32N 53°23' W 003°00'1 1.4
2016-Aug-27 10:33N 53°24' W 003°00'1 0.9
2016-Aug-27 09:33N 53°23' W 003°00'0 0.5
2016-Aug-27 08:31N 53°23' W 003°00'0 0.0
2016-Aug-27 07:31N 53°23' W 003°00'0 0.0
2016-Aug-27 06:31N 53°23' W 003°00'0 0.0
2016-Aug-27 04:31N 53°23' W 003°00'0 0.0
2016-Aug-27 03:31N 53°23' W 003°00'0 0.0
2016-Aug-27 02:31N 53°23' W 003°00'0 0.0
2016-Aug-27 01:31N 53°23' W 003°00'0 0.0
2016-Aug-27 00:31N 53°23' W 003°00'0 0.0
2016-Aug-26 23:31N 53°23' W 003°00'0 0.0
2016-Aug-26 22:31N 53°23' W 003°00'0 0.0
2016-Aug-26 21:31N 53°23' W 003°00'0 0.0
2016-Aug-26 20:31N 53°23' W 003°00'0 0.0
2016-Aug-26 19:34N 53°23' W 003°00'0 0.0
2016-Aug-26 18:25N 53°23' W 003°00'0 0.0
2016-Aug-26 17:34N 53°23' W 003°00'0 0.0
2016-Aug-26 16:33N 53°23' W 003°00'0 0.0
2016-Aug-26 15:33N 53°23' W 003°00'0 0.0
2016-Aug-26 14:33N 53°23' W 003°00'0 0.0
2016-Aug-26 13:33N 53°23' W 003°00'0 0.1
2016-Aug-26 12:31N 53°23' W 002°60'0 0.0
2016-Aug-26 11:25N 53°23' W 002°60'0 0.0
2016-Aug-26 10:34N 53°23' W 002°60'0 0.0
2016-Aug-26 09:34N 53°23' W 002°60'0 0.0
2016-Aug-26 08:33N 53°23' W 002°60'0 0.0
2016-Aug-26 07:33N 53°23' W 002°60'0 0.0
2016-Aug-26 06:33N 53°23' W 002°60'0 0.0
2016-Aug-26 04:33N 53°23' W 002°60'0 0.0
2016-Aug-26 03:30N 53°23' W 002°60'0 0.0
2016-Aug-26 02:33N 53°23' W 002°60'0 0.0
2016-Aug-26 01:33N 53°23' W 002°60'0 0.0
2016-Aug-26 00:33N 53°23' W 002°60'0 0.0
2016-Aug-25 23:33N 53°23' W 002°60'0 0.0
2016-Aug-25 22:33N 53°23' W 002°60'0 0.0
2016-Aug-25 21:33N 53°23' W 002°60'0 0.0
2016-Aug-25 20:33N 53°23' W 002°60'0 0.0
2016-Aug-25 19:30N 53°23' W 002°60'0 0.0
2016-Aug-25 18:33N 53°23' W 002°60'0 0.0
2016-Aug-25 17:33N 53°23' W 002°60'0 0.0
2016-Aug-25 16:26N 53°23' W 002°60'4 4.2
2016-Aug-25 15:33N 53°26' W 003°01'8 8.2
2016-Aug-25 14:33N 53°31' W 003°12'5 5.4
2016-Aug-25 13:33N 53°29' W 003°04'7 6.5
2016-Aug-25 12:32N 53°23' W 002°60'0 0.0
2016-Aug-25 11:32N 53°23' W 002°60'0 0.0
2016-Aug-25 10:32N 53°23' W 002°60'0 0.0
2016-Aug-25 09:17N 53°23' W 002°60'0 0.0
2016-Aug-25 08:32N 53°23' W 002°60'0 0.0
2016-Aug-25 07:32N 53°23' W 002°60'0 0.0
2016-Aug-25 06:32N 53°23' W 002°60'0 0.0
2016-Aug-25 04:26N 53°23' W 002°60'0 0.0
2016-Aug-25 03:32N 53°23' W 002°60'0 0.0
2016-Aug-25 02:29N 53°23' W 002°60'0 0.0
2016-Aug-25 01:32N 53°23' W 002°60'0 0.0
2016-Aug-25 00:32N 53°23' W 002°60'0 0.0
2016-Aug-24 23:29N 53°23' W 002°60'0 0.0
2016-Aug-24 22:32N 53°23' W 002°60'0 0.0
2016-Aug-24 21:32N 53°23' W 002°60'0 0.0
2016-Aug-24 20:32N 53°23' W 002°60'0 0.0
2016-Aug-24 19:32N 53°23' W 002°60'0 0.0
2016-Aug-24 18:32N 53°23' W 002°60'0 0.0
2016-Aug-24 17:32N 53°23' W 002°60'0 0.0
2016-Aug-24 16:29N 53°23' W 002°60'0 0.3
2016-Aug-24 15:33N 53°23' W 003°00'4 4.4
2016-Aug-24 14:33N 53°27' W 003°02'1010.3
2016-Aug-24 13:33N 53°31' W 003°18'7 6.9
2016-Aug-24 12:33N 53°31' W 003°06'9 8.4
2016-Aug-24 11:31N 53°23' W 003°00'0 0.0
2016-Aug-24 10:25N 53°23' W 003°00'0 0.0
2016-Aug-24 09:28N 53°23' W 003°00'0 0.0
2016-Aug-24 08:28N 53°23' W 003°00'0 0.0
2016-Aug-24 07:28N 53°23' W 003°00'0 0.0
2016-Aug-24 06:28N 53°23' W 003°00'0 0.0
2016-Aug-24 04:28N 53°23' W 003°00'0 0.1
2016-Aug-24 03:31N 53°23' W 002°60'1 1.4
2016-Aug-24 02:33N 53°24' W 003°00'7 7.2
2016-Aug-24 01:33N 53°30' W 003°06'6 5.6
2016-Aug-24 00:33N 53°31' W 003°15'9 8.8
2016-Aug-23 23:33N 53°27' W 003°02'1 0.7
2016-Aug-23 22:32N 53°27' W 003°01'1 0.9
2016-Aug-23 21:33N 53°28' W 003°02'3 2.5
2016-Aug-23 20:32N 53°25' W 003°00'0 0.0
2016-Aug-23 19:32N 53°25' W 003°00'0 0.0
2016-Aug-23 18:32N 53°25' W 003°00'0 0.0
2016-Aug-23 17:32N 53°25' W 003°00'0 0.0
2016-Aug-23 16:32N 53°25' W 003°00'0 0.0
2016-Aug-23 15:32N 53°25' W 003°00'0 0.0
2016-Aug-23 14:29N 53°25' W 003°00'0 0.0
2016-Aug-23 13:26N 53°25' W 003°00'0 0.0
2016-Aug-23 12:32N 53°25' W 003°00'0 0.0
2016-Aug-23 11:26N 53°25' W 003°00'0 0.0
2016-Aug-23 10:29N 53°25' W 003°00'0 0.0
2016-Aug-23 09:32N 53°25' W 003°00'0 0.0
2016-Aug-23 08:29N 53°25' W 003°00'0 0.0
2016-Aug-23 07:32N 53°25' W 003°00'0 0.0
2016-Aug-23 06:29N 53°25' W 003°00'0 0.0
2016-Aug-23 05:32N 53°25' W 003°00'0 0.0
2016-Aug-23 04:32N 53°25' W 003°00'0 0.0
2016-Aug-23 03:32N 53°25' W 003°00'0 0.0
2016-Aug-23 02:32N 53°25' W 003°00'0 0.0
2016-Aug-23 01:32N 53°25' W 003°00'0 0.0
2016-Aug-23 00:31N 53°25' W 003°00'0 0.0
2016-Aug-22 23:31N 53°25' W 003°00'0 0.0
2016-Aug-22 22:31N 53°25' W 003°00'0 0.0
2016-Aug-22 21:31N 53°25' W 003°00'0 0.0
2016-Aug-22 20:31N 53°25' W 003°00'0 0.0
2016-Aug-22 19:31N 53°25' W 003°00'0 0.0
2016-Aug-22 18:31N 53°25' W 003°00'0 0.0
2016-Aug-22 17:31N 53°25' W 003°00'0 0.0
2016-Aug-22 16:31N 53°25' W 003°00'0 0.0
2016-Aug-22 15:31N 53°25' W 003°00'0 0.0
2016-Aug-22 14:25N 53°25' W 003°00'0 0.0
2016-Aug-22 13:25N 53°25' W 003°00'0 0.0
2016-Aug-22 12:28N 53°25' W 003°00'0 0.0
2016-Aug-22 11:33N 53°25' W 003°00'2 2.2
2016-Aug-22 10:31N 53°28' W 003°02'2 2.3
2016-Aug-22 09:32N 53°25' W 003°00'0 0.0
2016-Aug-22 08:29N 53°25' W 003°00'0 0.0
2016-Aug-22 07:32N 53°25' W 003°00'0 0.0
2016-Aug-22 06:26N 53°25' W 003°00'0 0.0
2016-Aug-22 05:32N 53°25' W 003°00'0 0.0
2016-Aug-22 04:32N 53°25' W 003°00'0 0.0
2016-Aug-22 03:29N 53°25' W 003°00'0 0.0
2016-Aug-22 02:32N 53°25' W 003°00'0 0.0
2016-Aug-22 01:32N 53°25' W 003°00'0 0.0
2016-Aug-22 00:32N 53°25' W 003°00'0 0.0
2016-Aug-21 23:32N 53°25' W 003°00'0 0.0
2016-Aug-21 22:32N 53°25' W 003°00'0 0.0
2016-Aug-21 21:32N 53°25' W 003°00'0 0.0
2016-Aug-21 20:32N 53°25' W 003°00'0 0.0
2016-Aug-21 19:32N 53°25' W 003°00'0 0.0
2016-Aug-21 18:32N 53°25' W 003°00'0 0.0
2016-Aug-21 17:32N 53°25' W 003°00'0 0.0
2016-Aug-21 16:22N 53°25' W 003°00'0 0.0
2016-Aug-21 15:31N 53°25' W 003°00'0 0.0
2016-Aug-21 14:31N 53°25' W 003°00'0 0.0
2016-Aug-21 13:31N 53°25' W 003°00'0 0.0
2016-Aug-21 12:31N 53°25' W 003°00'2 2.0
2016-Aug-21 11:25N 53°28' W 003°01'0 0.6
2016-Aug-21 10:32N 53°27' W 003°01'0 0.1
2016-Aug-21 09:33N 53°27' W 003°01'2 1.8
2016-Aug-21 08:31N 53°25' W 003°00'0 0.0
2016-Aug-21 07:31N 53°25' W 003°00'0 0.0
2016-Aug-21 06:31N 53°25' W 003°00'0 0.0
2016-Aug-21 05:31N 53°25' W 003°00'0 0.0
2016-Aug-21 04:31N 53°25' W 003°00'0 0.0
2016-Aug-21 03:31N 53°25' W 003°00'0 0.0
2016-Aug-21 02:28N 53°25' W 003°00'0 0.0
2016-Aug-21 01:31N 53°25' W 003°00'0 0.0
2016-Aug-21 00:28N 53°25' W 003°00'0 0.0
2016-Aug-20 23:31N 53°25' W 003°00'0 0.0
2016-Aug-20 22:31N 53°25' W 003°00'0 0.0
2016-Aug-20 21:31N 53°25' W 003°00'2 1.7
2016-Aug-20 20:33N 53°27' W 003°01'2 1.6
2016-Aug-20 19:32N 53°25' W 003°00'0 0.0
2016-Aug-20 18:29N 53°25' W 003°00'0 0.0
2016-Aug-20 17:29N 53°25' W 003°00'0 0.0
2016-Aug-20 16:32N 53°25' W 003°00'0 0.0
2016-Aug-20 15:32N 53°25' W 003°00'0 0.0
2016-Aug-20 14:32N 53°25' W 003°00'0 0.0
2016-Aug-20 13:26N 53°25' W 003°00'0 0.0
2016-Aug-20 12:32N 53°25' W 003°00'0 0.0
2016-Aug-20 11:29N 53°25' W 003°00'0 0.0
2016-Aug-20 10:29N 53°25' W 003°00'  
Track history (hours):
 
Tides and Currents Weather Stations Pressure Air Temp Water Temp Dewpoint Dewpoint Depression Visibility Wind Speed Wind Dir Waves Ship Positions

Svitzer Stanlow

Last reported at 2016-Aug-30 10:29 UTC. Time now 2016-Aug-30 10:55 UTC.
Position N 53°23' W 002°60'.

Length 39 m.

Type: Tug. MMSI: 235010620.

Date/timePositionNaut miles runAvg speedWind from/ knotsBaromVisibWave heightAir tempDewpointWater temp
2016-Aug-30 10:29N 53°23' W 002°60'0 0.0
2016-Aug-30 09:32N 53°23' W 002°60'0 0.0
2016-Aug-30 08:32N 53°23' W 002°60'0 0.0
2016-Aug-30 07:32N 53°23' W 002°60'0 0.0
2016-Aug-30 06:32N 53°23' W 002°60'0 0.0
2016-Aug-30 05:32N 53°23' W 002°60'0 0.0
2016-Aug-30 04:29N 53°23' W 002°60'0 0.0
2016-Aug-30 03:32N 53°23' W 002°60'0 0.0
2016-Aug-30 02:32N 53°23' W 002°60'0 0.0
2016-Aug-30 01:32N 53°23' W 002°60'0 0.0
2016-Aug-30 00:29N 53°23' W 002°60'0 0.0
2016-Aug-29 23:32N 53°23' W 002°60'0 0.0
2016-Aug-29 22:32N 53°23' W 002°60'0 0.1
2016-Aug-29 21:29N 53°23' W 002°60'2 2.6
2016-Aug-29 20:33N 53°25' W 003°01'8 8.0
2016-Aug-29 19:33N 53°32' W 003°08'3 3.1
2016-Aug-29 18:33N 53°31' W 003°13'8 8.0
2016-Aug-29 17:33N 53°27' W 003°02'5 4.7
2016-Aug-29 16:33N 53°23' W 002°60'0 0.0
2016-Aug-29 15:33N 53°23' W 002°60'0 0.0
2016-Aug-29 14:33N 53°23' W 002°60'0 0.0
2016-Aug-29 13:33N 53°23' W 002°60'0 0.0
2016-Aug-29 12:33N 53°23' W 002°60'0 0.0
2016-Aug-29 11:33N 53°23' W 002°60'0 0.0
2016-Aug-29 10:33N 53°23' W 002°60'0 0.0
2016-Aug-29 09:33N 53°23' W 002°60'1 1.1
2016-Aug-29 08:33N 53°24' W 003°00'8 8.0
2016-Aug-29 07:33N 53°31' W 003°07'3 3.2
2016-Aug-29 06:33N 53°31' W 003°12'8 8.4
2016-Aug-29 05:33N 53°26' W 003°01'3 3.1
2016-Aug-29 04:32N 53°23' W 003°00'0 0.0
2016-Aug-29 03:32N 53°23' W 003°00'0 0.0
2016-Aug-29 02:29N 53°23' W 003°00'0 0.0
2016-Aug-29 01:29N 53°23' W 003°00'0 0.0
2016-Aug-29 00:32N 53°23' W 003°00'0 0.0
2016-Aug-28 23:32N 53°23' W 003°00'0 0.0
2016-Aug-28 22:32N 53°23' W 003°00'0 0.0
2016-Aug-28 21:32N 53°23' W 003°00'0 0.0
2016-Aug-28 20:32N 53°23' W 003°00'0 0.0
2016-Aug-28 19:32N 53°23' W 003°00'0 0.0
2016-Aug-28 18:32N 53°23' W 003°00'0 0.0
2016-Aug-28 17:32N 53°23' W 003°00'0 0.0
2016-Aug-28 16:32N 53°23' W 003°00'0 0.0
2016-Aug-28 15:32N 53°23' W 003°00'0 0.0
2016-Aug-28 14:32N 53°23' W 003°00'0 0.0
2016-Aug-28 13:32N 53°23' W 003°00'0 0.0
2016-Aug-28 12:32N 53°23' W 003°00'0 0.0
2016-Aug-28 11:32N 53°23' W 003°00'0 0.0
2016-Aug-28 10:32N 53°23' W 003°00'0 0.0
2016-Aug-28 09:32N 53°23' W 003°00'0 0.0
2016-Aug-28 08:32N 53°23' W 003°00'0 0.1
2016-Aug-28 07:33N 53°23' W 002°60'6 6.2
2016-Aug-28 06:33N 53°29' W 003°04'8 7.7
2016-Aug-28 05:33N 53°31' W 003°17'7 6.5
2016-Aug-28 04:33N 53°30' W 003°06'8 8.1
2016-Aug-28 03:34N 53°23' W 002°60'0 0.1
2016-Aug-28 02:33N 53°23' W 003°00'0 0.0
2016-Aug-28 01:33N 53°23' W 003°00'0 0.0
2016-Aug-28 00:30N 53°23' W 003°00'0 0.0
2016-Aug-27 23:33N 53°23' W 003°00'0 0.0
2016-Aug-27 22:33N 53°23' W 003°00'0 0.0
2016-Aug-27 21:33N 53°23' W 003°00'0 0.0
2016-Aug-27 20:33N 53°23' W 003°00'0 0.0
2016-Aug-27 19:33N 53°23' W 003°00'0 0.0
2016-Aug-27 18:30N 53°23' W 003°00'0 0.0
2016-Aug-27 17:33N 53°23' W 003°00'0 0.0
2016-Aug-27 16:30N 53°23' W 003°00'0 0.0
2016-Aug-27 15:33N 53°23' W 003°00'0 0.0
2016-Aug-27 14:32N 53°23' W 003°00'0 0.0
2016-Aug-27 13:32N 53°23' W 003°00'0 0.0
2016-Aug-27 12:32N 53°23' W 003°00'0 0.0
2016-Aug-27 11:32N 53°23' W 003°00'1 1.4
2016-Aug-27 10:33N 53°24' W 003°00'1 0.9
2016-Aug-27 09:33N 53°23' W 003°00'0 0.5
2016-Aug-27 08:31N 53°23' W 003°00'0 0.0
2016-Aug-27 07:31N 53°23' W 003°00'0 0.0
2016-Aug-27 06:31N 53°23' W 003°00'0 0.0
2016-Aug-27 04:31N 53°23' W 003°00'0 0.0
2016-Aug-27 03:31N 53°23' W 003°00'0 0.0
2016-Aug-27 02:31N 53°23' W 003°00'0 0.0
2016-Aug-27 01:31N 53°23' W 003°00'0 0.0
2016-Aug-27 00:31N 53°23' W 003°00'0 0.0
2016-Aug-26 23:31N 53°23' W 003°00'0 0.0
2016-Aug-26 22:31N 53°23' W 003°00'0 0.0
2016-Aug-26 21:31N 53°23' W 003°00'0 0.0
2016-Aug-26 20:31N 53°23' W 003°00'0 0.0
2016-Aug-26 19:34N 53°23' W 003°00'0 0.0
2016-Aug-26 18:25N 53°23' W 003°00'0 0.0
2016-Aug-26 17:34N 53°23' W 003°00'0 0.0
2016-Aug-26 16:33N 53°23' W 003°00'0 0.0
2016-Aug-26 15:33N 53°23' W 003°00'0 0.0
2016-Aug-26 14:33N 53°23' W 003°00'0 0.0
2016-Aug-26 13:33N 53°23' W 003°00'0 0.1
2016-Aug-26 12:31N 53°23' W 002°60'0 0.0
2016-Aug-26 11:25N 53°23' W 002°60'0 0.0
2016-Aug-26 10:34N 53°23' W 002°60'0 0.0
2016-Aug-26 09:34N 53°23' W 002°60'0 0.0
2016-Aug-26 08:33N 53°23' W 002°60'0 0.0
2016-Aug-26 07:33N 53°23' W 002°60'0 0.0
2016-Aug-26 06:33N 53°23' W 002°60'0 0.0
2016-Aug-26 04:33N 53°23' W 002°60'0 0.0
2016-Aug-26 03:30N 53°23' W 002°60'0 0.0
2016-Aug-26 02:33N 53°23' W 002°60'0 0.0
2016-Aug-26 01:33N 53°23' W 002°60'0 0.0
2016-Aug-26 00:33N 53°23' W 002°60'0 0.0
2016-Aug-25 23:33N 53°23' W 002°60'0 0.0
2016-Aug-25 22:33N 53°23' W 002°60'0 0.0
2016-Aug-25 21:33N 53°23' W 002°60'0 0.0
2016-Aug-25 20:33N 53°23' W 002°60'0 0.0
2016-Aug-25 19:30N 53°23' W 002°60'0 0.0
2016-Aug-25 18:33N 53°23' W 002°60'0 0.0
2016-Aug-25 17:33N 53°23' W 002°60'0 0.0
2016-Aug-25 16:26N 53°23' W 002°60'4 4.2
2016-Aug-25 15:33N 53°26' W 003°01'8 8.2
2016-Aug-25 14:33N 53°31' W 003°12'5 5.4
2016-Aug-25 13:33N 53°29' W 003°04'7 6.5
2016-Aug-25 12:32N 53°23' W 002°60'0 0.0
2016-Aug-25 11:32N 53°23' W 002°60'0 0.0
2016-Aug-25 10:32N 53°23' W 002°60'0 0.0
2016-Aug-25 09:17N 53°23' W 002°60'0 0.0
2016-Aug-25 08:32N 53°23' W 002°60'0 0.0
2016-Aug-25 07:32N 53°23' W 002°60'0 0.0
2016-Aug-25 06:32N 53°23' W 002°60'0 0.0
2016-Aug-25 04:26N 53°23' W 002°60'0 0.0
2016-Aug-25 03:32N 53°23' W 002°60'0 0.0
2016-Aug-25 02:29N 53°23' W 002°60'0 0.0
2016-Aug-25 01:32N 53°23' W 002°60'0 0.0
2016-Aug-25 00:32N 53°23' W 002°60'0 0.0
2016-Aug-24 23:29N 53°23' W 002°60'0 0.0
2016-Aug-24 22:32N 53°23' W 002°60'0 0.0
2016-Aug-24 21:32N 53°23' W 002°60'0 0.0
2016-Aug-24 20:32N 53°23' W 002°60'0 0.0
2016-Aug-24 19:32N 53°23' W 002°60'0 0.0
2016-Aug-24 18:32N 53°23' W 002°60'0 0.0
2016-Aug-24 17:32N 53°23' W 002°60'0 0.0
2016-Aug-24 16:29N 53°23' W 002°60'0 0.3
2016-Aug-24 15:33N 53°23' W 003°00'4 4.4
2016-Aug-24 14:33N 53°27' W 003°02'1010.3
2016-Aug-24 13:33N 53°31' W 003°18'7 6.9
2016-Aug-24 12:33N 53°31' W 003°06'9 8.4
2016-Aug-24 11:31N 53°23' W 003°00'0 0.0
2016-Aug-24 10:25N 53°23' W 003°00'0 0.0
2016-Aug-24 09:28N 53°23' W 003°00'0 0.0
2016-Aug-24 08:28N 53°23' W 003°00'0 0.0
2016-Aug-24 07:28N 53°23' W 003°00'0 0.0
2016-Aug-24 06:28N 53°23' W 003°00'0 0.0
2016-Aug-24 04:28N 53°23' W 003°00'0 0.1
2016-Aug-24 03:31N 53°23' W 002°60'1 1.4
2016-Aug-24 02:33N 53°24' W 003°00'7 7.2
2016-Aug-24 01:33N 53°30' W 003°06'6 5.6
2016-Aug-24 00:33N 53°31' W 003°15'9 8.8
2016-Aug-23 23:33N 53°27' W 003°02'1 0.7
2016-Aug-23 22:32N 53°27' W 003°01'1 0.9
2016-Aug-23 21:33N 53°28' W 003°02'3 2.5
2016-Aug-23 20:32N 53°25' W 003°00'0 0.0
2016-Aug-23 19:32N 53°25' W 003°00'0 0.0
2016-Aug-23 18:32N 53°25' W 003°00'0 0.0
2016-Aug-23 17:32N 53°25' W 003°00'0 0.0
2016-Aug-23 16:32N 53°25' W 003°00'0 0.0
2016-Aug-23 15:32N 53°25' W 003°00'0 0.0
2016-Aug-23 14:29N 53°25' W 003°00'0 0.0
2016-Aug-23 13:26N 53°25' W 003°00'0 0.0
2016-Aug-23 12:32N 53°25' W 003°00'0 0.0
2016-Aug-23 11:26N 53°25' W 003°00'0 0.0
2016-Aug-23 10:29N 53°25' W 003°00'0 0.0
2016-Aug-23 09:32N 53°25' W 003°00'0 0.0
2016-Aug-23 08:29N 53°25' W 003°00'0 0.0
2016-Aug-23 07:32N 53°25' W 003°00'0 0.0
2016-Aug-23 06:29N 53°25' W 003°00'0 0.0
2016-Aug-23 05:32N 53°25' W 003°00'0 0.0
2016-Aug-23 04:32N 53°25' W 003°00'0 0.0
2016-Aug-23 03:32N 53°25' W 003°00'0 0.0
2016-Aug-23 02:32N 53°25' W 003°00'0 0.0
2016-Aug-23 01:32N 53°25' W 003°00'0 0.0
2016-Aug-23 00:31N 53°25' W 003°00'0 0.0
2016-Aug-22 23:31N 53°25' W 003°00'0 0.0
2016-Aug-22 22:31N 53°25' W 003°00'0 0.0
2016-Aug-22 21:31N 53°25' W 003°00'0 0.0
2016-Aug-22 20:31N 53°25' W 003°00'0 0.0
2016-Aug-22 19:31N 53°25' W 003°00'0 0.0
2016-Aug-22 18:31N 53°25' W 003°00'0 0.0
2016-Aug-22 17:31N 53°25' W 003°00'0 0.0
2016-Aug-22 16:31N 53°25' W 003°00'0 0.0
2016-Aug-22 15:31N 53°25' W 003°00'0 0.0
2016-Aug-22 14:25N 53°25' W 003°00'0 0.0
2016-Aug-22 13:25N 53°25' W 003°00'0 0.0
2016-Aug-22 12:28N 53°25' W 003°00'0 0.0
2016-Aug-22 11:33N 53°25' W 003°00'2 2.2
2016-Aug-22 10:31N 53°28' W 003°02'2 2.3
2016-Aug-22 09:32N 53°25' W 003°00'0 0.0
2016-Aug-22 08:29N 53°25' W 003°00'0 0.0
2016-Aug-22 07:32N 53°25' W 003°00'0 0.0
2016-Aug-22 06:26N 53°25' W 003°00'0 0.0
2016-Aug-22 05:32N 53°25' W 003°00'0 0.0
2016-Aug-22 04:32N 53°25' W 003°00'0 0.0
2016-Aug-22 03:29N 53°25' W 003°00'0 0.0
2016-Aug-22 02:32N 53°25' W 003°00'0 0.0
2016-Aug-22 01:32N 53°25' W 003°00'0 0.0
2016-Aug-22 00:32N 53°25' W 003°00'0 0.0
2016-Aug-21 23:32N 53°25' W 003°00'0 0.0
2016-Aug-21 22:32N 53°25' W 003°00'0 0.0
2016-Aug-21 21:32N 53°25' W 003°00'0 0.0
2016-Aug-21 20:32N 53°25' W 003°00'0 0.0
2016-Aug-21 19:32N 53°25' W 003°00'0 0.0
2016-Aug-21 18:32N 53°25' W 003°00'0 0.0
2016-Aug-21 17:32N 53°25' W 003°00'0 0.0
2016-Aug-21 16:22N 53°25' W 003°00'0 0.0
2016-Aug-21 15:31N 53°25' W 003°00'0 0.0
2016-Aug-21 14:31N 53°25' W 003°00'0 0.0
2016-Aug-21 13:31N 53°25' W 003°00'0 0.0
2016-Aug-21 12:31N 53°25' W 003°00'2 2.0
2016-Aug-21 11:25N 53°28' W 003°01'0 0.6
2016-Aug-21 10:32N 53°27' W 003°01'0 0.1
2016-Aug-21 09:33N 53°27' W 003°01'2 1.8
2016-Aug-21 08:31N 53°25' W 003°00'0 0.0
2016-Aug-21 07:31N 53°25' W 003°00'0 0.0
2016-Aug-21 06:31N 53°25' W 003°00'0 0.0
2016-Aug-21 05:31N 53°25' W 003°00'0 0.0
2016-Aug-21 04:31N 53°25' W 003°00'0 0.0
2016-Aug-21 03:31N 53°25' W 003°00'0 0.0
2016-Aug-21 02:28N 53°25' W 003°00'0 0.0
2016-Aug-21 01:31N 53°25' W 003°00'0 0.0
2016-Aug-21 00:28N 53°25' W 003°00'0 0.0
2016-Aug-20 23:31N 53°25' W 003°00'0 0.0
2016-Aug-20 22:31N 53°25' W 003°00'0 0.0
2016-Aug-20 21:31N 53°25' W 003°00'2 1.7
2016-Aug-20 20:33N 53°27' W 003°01'2 1.6
2016-Aug-20 19:32N 53°25' W 003°00'0 0.0
2016-Aug-20 18:29N 53°25' W 003°00'0 0.0
2016-Aug-20 17:29N 53°25' W 003°00'0 0.0
2016-Aug-20 16:32N 53°25' W 003°00'0 0.0
2016-Aug-20 15:32N 53°25' W 003°00'0 0.0
2016-Aug-20 14:32N 53°25' W 003°00'0 0.0
2016-Aug-20 13:26N 53°25' W 003°00'0 0.0
2016-Aug-20 12:32N 53°25' W 003°00'0 0.0
2016-Aug-20 11:29N 53°25' W 003°00'0 0.0
2016-Aug-20 10:29N 53°25' W 003°00'  

Dump ship's entire track history